createdAt,value
2019-03-24T00:02:16.728Z,98449.27
2019-03-24T00:05:22.427Z,98454.50
2019-03-24T00:08:27.768Z,98428.23
2019-03-24T00:11:33.049Z,98442.77
2019-03-24T00:14:38.295Z,98436.59
2019-03-24T00:17:43.884Z,98431.30
2019-03-24T00:20:49.470Z,98426.01
2019-03-24T00:23:54.340Z,98425.64
2019-03-24T00:26:59.312Z,98422.00
2019-03-24T00:30:05.935Z,98416.37
2019-03-24T00:33:11.011Z,98409.16
2019-03-24T00:36:15.955Z,98410.27
2019-03-24T00:39:21.437Z,98409.71
2019-03-24T00:42:26.424Z,98397.62
2019-03-24T00:45:36.859Z,98397.91
2019-03-24T00:48:38.325Z,98395.99
2019-03-24T00:51:43.600Z,98396.05
2019-03-24T00:54:48.432Z,98390.84
2019-03-24T00:57:53.616Z,98393.82
2019-03-24T01:00:58.800Z,98383.67
2019-03-24T01:04:04.316Z,98380.96
2019-03-24T01:07:09.662Z,98383.48
2019-03-24T01:10:14.043Z,98379.17
2019-03-24T01:13:19.442Z,98379.97
2019-03-24T01:16:25.003Z,98377.30
2019-03-24T01:19:30.288Z,98368.27
2019-03-24T01:22:35.275Z,98379.20
2019-03-24T01:25:40.312Z,98377.17
2019-03-24T01:28:45.359Z,98374.95
2019-03-24T01:31:50.471Z,98374.39
2019-03-24T01:34:55.379Z,98375.89
2019-03-24T01:37:59.640Z,98379.27
2019-03-24T01:41:04.649Z,98379.98
2019-03-24T01:44:09.920Z,98376.02
2019-03-24T01:47:15.418Z,98376.00
2019-03-24T01:50:20.988Z,98372.69
2019-03-24T01:53:25.732Z,98377.41
2019-03-24T01:56:29.697Z,98368.59
2019-03-24T01:59:35.031Z,98364.51
2019-03-24T02:02:39.786Z,98365.31
2019-03-24T02:05:44.485Z,98356.05
2019-03-24T02:08:49.728Z,98361.28
2019-03-24T02:11:53.594Z,98359.37
2019-03-24T02:14:58.894Z,98364.46
2019-03-24T02:18:03.827Z,98356.33
2019-03-24T02:21:09.641Z,98356.33
2019-03-24T02:24:14.965Z,98354.30
2019-03-24T02:27:20.139Z,98354.73
2019-03-24T02:30:25.478Z,98346.41
2019-03-24T02:33:30.282Z,98344.23
2019-03-24T02:36:35.664Z,98345.09
2019-03-24T02:39:40.504Z,98341.55
2019-03-24T02:42:44.708Z,98339.50
2019-03-24T02:45:50.337Z,98340.63
2019-03-24T02:48:55.908Z,98334.98
2019-03-24T02:52:01.004Z,98336.17
2019-03-24T02:55:08.634Z,98334.50
2019-03-24T02:58:13.796Z,98333.98
2019-03-24T03:01:19.323Z,98331.31
2019-03-24T03:04:24.692Z,98332.11
2019-03-24T03:07:29.311Z,98326.69
2019-03-24T03:10:35.049Z,98326.52
2019-03-24T03:13:40.283Z,98326.16
2019-03-24T03:16:45.322Z,98323.33
2019-03-24T03:19:53.382Z,98312.77
2019-03-24T03:22:57.444Z,98311.72
2019-03-24T03:26:02.321Z,98310.00
2019-03-24T03:29:07.352Z,98312.06
2019-03-24T03:32:12.700Z,98309.42
2019-03-24T03:35:16.891Z,98298.38
2019-03-24T03:38:22.312Z,98299.77
2019-03-24T03:41:28.158Z,98299.77
2019-03-24T03:44:33.264Z,98295.02
2019-03-24T03:47:38.413Z,98294.84
2019-03-24T03:50:43.424Z,98282.55
2019-03-24T03:53:48.096Z,98290.62
2019-03-24T03:56:53.255Z,98284.54
2019-03-24T03:59:59.151Z,98291.75
2019-03-24T04:03:05.193Z,98287.94
2019-03-24T04:06:10.560Z,98286.14
2019-03-24T04:09:15.454Z,98282.09
2019-03-24T04:12:20.463Z,98283.59
2019-03-24T04:15:25.442Z,98283.64
2019-03-24T04:18:30.292Z,98284.19
2019-03-24T04:21:36.065Z,98276.40
2019-03-24T04:24:41.045Z,98274.36
2019-03-24T04:27:46.369Z,98283.41
2019-03-24T04:30:51.701Z,98276.66
2019-03-24T04:33:57.305Z,98263.48
2019-03-24T04:37:02.615Z,98263.48
2019-03-24T04:40:09.072Z,98269.60
2019-03-24T04:43:13.758Z,98267.06
2019-03-24T04:46:17.626Z,98265.88
2019-03-24T04:49:23.394Z,98261.34
2019-03-24T04:52:28.486Z,98264.43
2019-03-24T04:55:33.718Z,98258.85
2019-03-24T04:58:38.344Z,98258.77
2019-03-24T05:01:43.386Z,98267.78
2019-03-24T05:04:49.490Z,98268.69
2019-03-24T05:07:54.701Z,98266.34
2019-03-24T05:10:58.658Z,98262.39
2019-03-24T05:14:03.340Z,98269.78
2019-03-24T05:17:08.433Z,98262.98
2019-03-24T05:20:13.413Z,98256.14
2019-03-24T05:23:18.387Z,98258.27
2019-03-24T05:26:23.379Z,98263.58
2019-03-24T05:29:28.576Z,98259.50
2019-03-24T05:32:33.443Z,98258.91
2019-03-24T05:35:38.280Z,98255.73
2019-03-24T05:38:43.285Z,98255.81
2019-03-24T05:41:47.962Z,98252.69
2019-03-24T05:44:52.976Z,98250.34
2019-03-24T05:47:58.550Z,98251.47
2019-03-24T05:51:03.670Z,98247.78
2019-03-24T05:54:08.341Z,98248.25
2019-03-24T05:57:13.307Z,98240.77
2019-03-24T06:00:19.097Z,98252.95
2019-03-24T06:03:23.739Z,98247.45
2019-03-24T06:06:28.331Z,98249.05
2019-03-24T06:09:33.518Z,98242.67
2019-03-24T06:12:38.665Z,98248.13
2019-03-24T06:15:43.704Z,98250.41
2019-03-24T06:18:49.478Z,98246.80
2019-03-24T06:21:54.690Z,98251.73
2019-03-24T06:25:01.656Z,98247.97
2019-03-24T06:28:06.869Z,98249.05
2019-03-24T06:31:13.059Z,98225.81
2019-03-24T06:34:18.981Z,98225.81
2019-03-24T06:37:24.599Z,98248.86
2019-03-24T06:40:30.027Z,98251.89
2019-03-24T06:43:34.919Z,98253.98
2019-03-24T06:46:40.722Z,98251.50
2019-03-24T06:49:46.322Z,98251.50
2019-03-24T06:52:51.306Z,98247.20
2019-03-24T06:55:56.304Z,98244.17
2019-03-24T06:59:02.377Z,98243.16
2019-03-24T07:02:07.266Z,98238.23
2019-03-24T07:05:12.280Z,98243.92
2019-03-24T07:08:17.349Z,98234.34
2019-03-24T07:11:22.935Z,98230.95
2019-03-24T07:14:28.313Z,98232.95
2019-03-24T07:17:33.999Z,98230.28
2019-03-24T07:20:38.883Z,98234.16
2019-03-24T07:23:43.947Z,98220.89
2019-03-24T07:26:49.265Z,98220.89
2019-03-24T07:29:56.057Z,98237.07
2019-03-24T07:33:02.746Z,98241.50
2019-03-24T07:36:07.324Z,98239.69
2019-03-24T07:39:12.257Z,98239.16
2019-03-24T07:42:17.099Z,98236.06
2019-03-24T07:45:23.989Z,98237.61
2019-03-24T07:48:30.386Z,98233.77
2019-03-24T07:51:35.561Z,98230.80
2019-03-24T07:54:41.256Z,98218.70
2019-03-24T07:57:46.623Z,98224.55
2019-03-24T08:00:52.051Z,98208.89
2019-03-24T08:04:02.085Z,98225.27
2019-03-24T08:07:06.892Z,98217.55
2019-03-24T08:10:12.044Z,98210.19
2019-03-24T08:13:17.247Z,98210.50
2019-03-24T08:16:22.728Z,98200.86
2019-03-24T08:19:27.977Z,98203.72
2019-03-24T08:22:35.268Z,98205.20
2019-03-24T08:25:42.294Z,98205.23
2019-03-24T08:28:47.304Z,98203.11
2019-03-24T08:31:54.426Z,98200.83
2019-03-24T08:34:59.739Z,98192.69
2019-03-24T08:38:06.319Z,98193.91
2019-03-24T08:41:11.292Z,98190.02
2019-03-24T08:44:16.548Z,98185.32
2019-03-24T08:47:21.348Z,98187.87
2019-03-24T08:50:27.258Z,98180.50
2019-03-24T08:53:32.270Z,98177.00
2019-03-24T08:56:37.385Z,98169.44
2019-03-24T08:59:42.514Z,98164.34
2019-03-24T09:02:47.977Z,98167.09
2019-03-24T09:05:53.003Z,98163.71
2019-03-24T09:08:58.274Z,98162.30
2019-03-24T09:12:03.653Z,98159.78
2019-03-24T09:15:10.316Z,98155.84
2019-03-24T09:18:15.943Z,98155.41
2019-03-24T09:21:21.463Z,98157.08
2019-03-24T09:24:28.186Z,98157.08
2019-03-24T09:27:34.512Z,98159.28
2019-03-24T09:30:40.596Z,98154.89
2019-03-24T09:33:45.981Z,98161.30
2019-03-24T09:36:51.348Z,98160.01
2019-03-24T09:39:57.224Z,98155.28
2019-03-24T09:43:02.343Z,98152.55
2019-03-24T09:46:07.319Z,98148.63
2019-03-24T09:49:14.014Z,98148.10
2019-03-24T09:52:18.929Z,98148.42
2019-03-24T09:55:23.665Z,98133.16
2019-03-24T09:58:28.561Z,98144.98
2019-03-24T10:01:34.524Z,98115.70
2019-03-24T10:04:40.535Z,98115.70
2019-03-24T10:07:47.387Z,98129.61
2019-03-24T10:10:52.464Z,98130.16
2019-03-24T10:13:57.624Z,98124.25
2019-03-24T10:17:02.368Z,98116.60
2019-03-24T10:20:07.746Z,98116.29
2019-03-24T10:23:13.632Z,98110.13
2019-03-24T10:26:18.995Z,98108.78
2019-03-24T10:29:24.649Z,98105.70
2019-03-24T10:32:29.709Z,98098.38
2019-03-24T10:35:33.905Z,98098.05
2019-03-24T10:38:39.326Z,98082.24
2019-03-24T10:41:44.472Z,98082.24
2019-03-24T10:44:49.331Z,98095.00
2019-03-24T10:47:54.349Z,98097.95
2019-03-24T10:50:59.875Z,98093.19
2019-03-24T10:54:04.754Z,98086.88
2019-03-24T10:57:08.878Z,98086.88
2019-03-24T11:00:14.850Z,98077.64
2019-03-24T11:03:19.453Z,98071.36
2019-03-24T11:06:24.332Z,98071.36
2019-03-24T11:09:29.277Z,98080.44
2019-03-24T11:12:37.299Z,98071.53
2019-03-24T11:15:42.734Z,98067.42
2019-03-24T11:18:47.296Z,98066.20
2019-03-24T11:21:52.339Z,98058.65
2019-03-24T11:24:57.686Z,98048.84
2019-03-24T11:28:01.831Z,98045.31
2019-03-24T11:31:08.541Z,98053.58
2019-03-24T11:34:13.700Z,98044.72
2019-03-24T11:37:17.922Z,98045.33
2019-03-24T11:40:22.969Z,98035.12
2019-03-24T11:43:28.399Z,98035.12
2019-03-24T11:46:33.577Z,98026.59
2019-03-24T11:49:45.947Z,98024.30
2019-03-24T11:52:46.031Z,98026.93
2019-03-24T11:55:52.032Z,98022.77
2019-03-24T11:58:57.076Z,98017.97
2019-03-24T12:02:03.283Z,98017.91
2019-03-24T12:05:08.754Z,98019.89
2019-03-24T12:08:12.922Z,98016.36
2019-03-24T12:11:17.812Z,98007.56
2019-03-24T12:14:22.529Z,98007.47
2019-03-24T12:17:27.428Z,98007.47
2019-03-24T12:20:32.273Z,97993.65
2019-03-24T12:23:37.298Z,98001.33
2019-03-24T12:26:42.270Z,98004.22
2019-03-24T12:29:47.112Z,97989.52
2019-03-24T12:32:53.846Z,97990.73
2019-03-24T12:35:58.945Z,97988.56
2019-03-24T12:39:05.297Z,97988.56
2019-03-24T12:42:10.471Z,97988.62
2019-03-24T12:45:15.985Z,97991.47
2019-03-24T12:48:22.208Z,97991.15
2019-03-24T12:51:28.321Z,97988.02
2019-03-24T12:54:34.253Z,97986.64
2019-03-24T12:57:39.796Z,97980.27
2019-03-24T13:00:44.853Z,97976.08
2019-03-24T13:03:49.712Z,97953.87
2019-03-24T13:06:54.317Z,97953.87
2019-03-24T13:09:59.259Z,97966.47
2019-03-24T13:13:05.473Z,97967.47
2019-03-24T13:16:13.616Z,97962.90
2019-03-24T13:19:19.480Z,97972.36
2019-03-24T13:22:24.299Z,97966.05
2019-03-24T13:25:30.259Z,97969.31
2019-03-24T13:28:36.401Z,97961.76
2019-03-24T13:31:42.148Z,97966.05
2019-03-24T13:34:48.930Z,97975.93
2019-03-24T13:37:54.436Z,97944.88
2019-03-24T13:40:59.934Z,97944.88
2019-03-24T13:44:05.444Z,97967.58
2019-03-24T13:47:12.089Z,97966.05
2019-03-24T13:50:17.343Z,97961.31
2019-03-24T13:53:22.584Z,97950.95
2019-03-24T13:56:30.261Z,97949.39
2019-03-24T13:59:37.339Z,97949.39
2019-03-24T14:02:42.395Z,97948.36
2019-03-24T14:05:51.585Z,97949.81
2019-03-24T14:09:00.952Z,97957.30
2019-03-24T14:12:06.733Z,97928.85
2019-03-24T14:15:12.467Z,97928.85
2019-03-24T14:18:17.563Z,97942.78
2019-03-24T14:21:24.563Z,97942.20
2019-03-24T14:24:30.440Z,97941.84
2019-03-24T14:27:36.123Z,97945.50
2019-03-24T14:30:46.395Z,97942.58
2019-03-24T14:33:51.452Z,97947.01
2019-03-24T14:36:56.640Z,97947.06
2019-03-24T14:40:05.816Z,97944.30
2019-03-24T14:43:12.393Z,97937.06
2019-03-24T14:46:19.427Z,97937.06
2019-03-24T14:49:26.283Z,97942.95
2019-03-24T14:52:32.301Z,97939.60
2019-03-24T14:55:38.591Z,97938.70
2019-03-24T14:58:43.655Z,97942.11
2019-03-24T15:01:48.802Z,97932.77
2019-03-24T15:04:55.264Z,97935.89
2019-03-24T15:08:00.615Z,97935.91
2019-03-24T15:11:06.195Z,97931.12
2019-03-24T15:14:11.526Z,97930.63
2019-03-24T15:17:16.785Z,97927.49
2019-03-24T15:20:23.458Z,97889.63
2019-03-24T15:23:28.954Z,97889.63
2019-03-24T15:26:34.422Z,97906.34
2019-03-24T15:29:40.377Z,97907.45
2019-03-24T15:32:45.409Z,97920.40
2019-03-24T15:35:50.409Z,97894.55
2019-03-24T15:38:56.931Z,97904.10
2019-03-24T15:42:03.505Z,97902.01
2019-03-24T15:45:08.782Z,97896.39
2019-03-24T15:48:14.588Z,97888.10
2019-03-24T15:51:19.766Z,97897.23
2019-03-24T15:54:24.392Z,97889.27
2019-03-24T15:57:31.306Z,97891.87
2019-03-24T16:00:42.996Z,97889.00
2019-03-24T16:03:48.257Z,97886.75
2019-03-24T16:06:52.939Z,97884.46
2019-03-24T16:09:58.264Z,97890.10
2019-03-24T16:13:04.147Z,97883.72
2019-03-24T16:16:09.521Z,97884.61
2019-03-24T16:19:16.475Z,97881.41
2019-03-24T16:22:22.276Z,97877.30
2019-03-24T16:25:28.648Z,97881.72
2019-03-24T16:28:34.898Z,97885.89
2019-03-24T16:31:39.643Z,97886.03
2019-03-24T16:34:44.443Z,97886.03
2019-03-24T16:37:51.569Z,97897.23
2019-03-24T16:40:56.439Z,97888.14
2019-03-24T16:44:01.289Z,97872.99
2019-03-24T16:47:06.366Z,97879.38
2019-03-24T16:50:12.356Z,97869.34
2019-03-24T16:53:17.381Z,97864.70
2019-03-24T16:56:22.724Z,97860.76
2019-03-24T16:59:28.585Z,97849.35
2019-03-24T17:02:33.767Z,97849.35
2019-03-24T17:05:37.667Z,97851.04
2019-03-24T17:08:43.603Z,97857.49
2019-03-24T17:11:49.343Z,97849.47
2019-03-24T17:14:54.610Z,97846.59
2019-03-24T17:17:59.361Z,97833.67
2019-03-24T17:21:04.426Z,97822.97
2019-03-24T17:24:10.558Z,97826.13
2019-03-24T17:27:18.321Z,97829.86
2019-03-24T17:30:23.623Z,97833.65
2019-03-24T17:33:28.359Z,97840.54
2019-03-24T17:36:33.535Z,97842.38
2019-03-24T17:39:38.767Z,97837.88
2019-03-24T17:42:44.050Z,97832.20
2019-03-24T17:45:49.275Z,97836.95
2019-03-24T17:48:55.290Z,97839.80
2019-03-24T17:52:01.639Z,97845.12
2019-03-24T17:55:08.423Z,97841.30
2019-03-24T17:58:13.498Z,97840.17
2019-03-24T18:01:18.630Z,97837.27
2019-03-24T18:04:25.308Z,97833.88
2019-03-24T18:07:30.242Z,97837.31
2019-03-24T18:10:35.275Z,97840.38
2019-03-24T18:13:40.676Z,97841.28
2019-03-24T18:16:46.439Z,97843.66
2019-03-24T18:19:52.452Z,97852.97
2019-03-24T18:23:02.029Z,97844.76
2019-03-24T18:26:07.434Z,97847.58
2019-03-24T18:29:13.275Z,97849.06
2019-03-24T18:32:18.444Z,97851.05
2019-03-24T18:35:23.426Z,97853.34
2019-03-24T18:38:28.264Z,97851.78
2019-03-24T18:41:34.380Z,97855.14
2019-03-24T18:44:39.307Z,97847.65
2019-03-24T18:47:44.223Z,97852.10
2019-03-24T18:50:49.436Z,97864.25
2019-03-24T18:53:54.263Z,97836.02
2019-03-24T18:56:59.055Z,97844.66
2019-03-24T19:00:05.400Z,97849.04
2019-03-24T19:03:10.603Z,97849.04
2019-03-24T19:06:17.663Z,97843.68
2019-03-24T19:09:24.503Z,97842.34
2019-03-24T19:12:31.378Z,97839.16
2019-03-24T19:15:37.686Z,97840.53
2019-03-24T19:18:42.923Z,97840.53
2019-03-24T19:21:47.890Z,97836.23
2019-03-24T19:24:52.978Z,97821.97
2019-03-24T19:27:58.277Z,97821.97
2019-03-24T19:31:03.482Z,97840.53
2019-03-24T19:34:08.568Z,97836.75
2019-03-24T19:37:13.770Z,97832.75
2019-03-24T19:40:27.751Z,97838.40
2019-03-24T19:43:34.512Z,97834.37
2019-03-24T19:46:41.436Z,97832.50
2019-03-24T19:49:48.238Z,97829.27
2019-03-24T19:52:53.283Z,97825.49
2019-03-24T19:55:58.295Z,97826.84
2019-03-24T19:59:05.252Z,97819.05
2019-03-24T20:02:11.549Z,97819.59
2019-03-24T20:05:16.581Z,97819.85
2019-03-24T20:08:21.259Z,97822.02
2019-03-24T20:11:26.272Z,97810.73
2019-03-24T20:14:31.308Z,97813.41
2019-03-24T20:17:36.522Z,97812.59
2019-03-24T20:20:41.617Z,97806.97
2019-03-24T20:23:46.678Z,97812.61
2019-03-24T20:26:51.767Z,97815.02
2019-03-24T20:29:55.868Z,97805.06
2019-03-24T20:33:00.980Z,97792.67
2019-03-24T20:36:06.284Z,97792.67
2019-03-24T20:39:11.566Z,97804.50
2019-03-24T20:42:16.314Z,97803.72
2019-03-24T20:45:22.274Z,97805.59
2019-03-24T20:48:27.260Z,97802.09
2019-03-24T20:51:32.279Z,97801.52
2019-03-24T20:54:37.308Z,97799.11
2019-03-24T20:57:42.329Z,97788.88
2019-03-24T21:00:50.010Z,97793.44
2019-03-24T21:03:54.712Z,97794.50
2019-03-24T21:06:59.017Z,97803.90
2019-03-24T21:10:05.317Z,97808.20
2019-03-24T21:13:10.465Z,97800.07
2019-03-24T21:16:15.974Z,97803.33
2019-03-24T21:19:20.936Z,97796.55
2019-03-24T21:22:27.574Z,97796.55
2019-03-24T21:25:32.462Z,97804.90
2019-03-24T21:28:37.268Z,97796.31
2019-03-24T21:31:42.029Z,97796.31
2019-03-24T21:34:46.973Z,97797.36
2019-03-24T21:37:52.077Z,97792.52
2019-03-24T21:40:57.734Z,97799.49
2019-03-24T21:44:01.836Z,97791.69
2019-03-24T21:47:06.889Z,97788.98
2019-03-24T21:50:13.061Z,97787.92
2019-03-24T21:53:18.332Z,97787.92
2019-03-24T21:56:23.267Z,97781.97
2019-03-24T21:59:28.976Z,97776.34
2019-03-24T22:02:34.714Z,97771.27
2019-03-24T22:05:39.804Z,97765.12
2019-03-24T22:08:45.018Z,97751.34
2019-03-24T22:11:51.002Z,97751.34
2019-03-24T22:14:55.964Z,97763.67
2019-03-24T22:18:00.795Z,97758.03
2019-03-24T22:21:05.572Z,97741.59
2019-03-24T22:24:11.009Z,97741.59
2019-03-24T22:27:16.476Z,97750.17
2019-03-24T22:30:21.662Z,97745.63
2019-03-24T22:33:26.454Z,97745.10
2019-03-24T22:36:31.340Z,97742.95
2019-03-24T22:39:36.467Z,97742.44
2019-03-24T22:42:42.294Z,97734.64
2019-03-24T22:45:47.463Z,97743.50
2019-03-24T22:48:52.490Z,97747.02
2019-03-24T22:52:06.775Z,97740.33
2019-03-24T22:55:06.640Z,97741.64
2019-03-24T22:58:11.895Z,97746.47
2019-03-24T23:01:18.074Z,97724.68
2019-03-24T23:04:23.238Z,97724.68
2019-03-24T23:07:28.295Z,97734.62
2019-03-24T23:10:33.333Z,97734.32
2019-03-24T23:13:38.749Z,97733.80
2019-03-24T23:16:43.138Z,97728.17
2019-03-24T23:19:48.341Z,97724.92
2019-03-24T23:22:53.095Z,97723.58
2019-03-24T23:25:57.715Z,97721.15
2019-03-24T23:29:01.672Z,97720.31
2019-03-24T23:32:06.332Z,97725.91
2019-03-24T23:35:11.393Z,97725.38
2019-03-24T23:38:16.696Z,97717.30
2019-03-24T23:41:21.019Z,97709.77
2019-03-24T23:44:25.963Z,97712.14
2019-03-24T23:47:30.646Z,97700.84
2019-03-24T23:50:35.398Z,97691.68
2019-03-24T23:53:40.256Z,97686.29
2019-03-24T23:56:45.327Z,97683.86
2019-03-24T23:59:50.319Z,97684.67
